sensor_id;sensor_type;location;lat;lon;timestamp;P1;durP1;ratioP1;P2;durP2;ratioP2
10452;SDS011;5274;51.992;8.518;2023-04-25T00:00:18;24.67;;;22.73;;
10452;SDS011;5274;51.992;8.518;2023-04-25T00:02:44;25.58;;;23.42;;
10452;SDS011;5274;51.992;8.518;2023-04-25T00:05:11;24.73;;;22.08;;
10452;SDS011;5274;51.992;8.518;2023-04-25T00:07:39;24.70;;;22.63;;
10452;SDS011;5274;51.992;8.518;2023-04-25T00:10:07;23.57;;;21.43;;
10452;SDS011;5274;51.992;8.518;2023-04-25T00:12:33;22.63;;;20.85;;
10452;SDS011;5274;51.992;8.518;2023-04-25T00:15:00;24.20;;;21.73;;
10452;SDS011;5274;51.992;8.518;2023-04-25T00:17:26;25.42;;;22.90;;
10452;SDS011;5274;51.992;8.518;2023-04-25T00:19:53;24.67;;;22.52;;
10452;SDS011;5274;51.992;8.518;2023-04-25T00:22:19;23.60;;;21.52;;
10452;SDS011;5274;51.992;8.518;2023-04-25T00:24:45;23.60;;;21.55;;
10452;SDS011;5274;51.992;8.518;2023-04-25T00:27:11;22.38;;;20.63;;
10452;SDS011;5274;51.992;8.518;2023-04-25T00:29:37;23.13;;;21.13;;
10452;SDS011;5274;51.992;8.518;2023-04-25T00:32:03;27.15;;;21.80;;
10452;SDS011;5274;51.992;8.518;2023-04-25T00:34:29;24.17;;;22.23;;
10452;SDS011;5274;51.992;8.518;2023-04-25T00:36:55;23.52;;;21.42;;
10452;SDS011;5274;51.992;8.518;2023-04-25T00:39:21;22.92;;;21.08;;
10452;SDS011;5274;51.992;8.518;2023-04-25T00:41:47;23.83;;;21.58;;
10452;SDS011;5274;51.992;8.518;2023-04-25T00:44:17;23.92;;;21.85;;
10452;SDS011;5274;51.992;8.518;2023-04-25T00:46:43;22.60;;;20.88;;
10452;SDS011;5274;51.992;8.518;2023-04-25T00:49:10;22.00;;;20.02;;
10452;SDS011;5274;51.992;8.518;2023-04-25T00:51:40;22.48;;;20.48;;
10452;SDS011;5274;51.992;8.518;2023-04-25T00:54:06;22.17;;;20.40;;
10452;SDS011;5274;51.992;8.518;2023-04-25T00:56:32;23.40;;;20.98;;
10452;SDS011;5274;51.992;8.518;2023-04-25T00:58:58;23.30;;;20.90;;
10452;SDS011;5274;51.992;8.518;2023-04-25T01:01:24;22.98;;;20.95;;
10452;SDS011;5274;51.992;8.518;2023-04-25T01:03:50;26.00;;;24.10;;
10452;SDS011;5274;51.992;8.518;2023-04-25T01:06:17;26.20;;;24.00;;
10452;SDS011;5274;51.992;8.518;2023-04-25T01:08:43;26.38;;;23.83;;
10452;SDS011;5274;51.992;8.518;2023-04-25T01:11:09;24.60;;;22.65;;
10452;SDS011;5274;51.992;8.518;2023-04-25T01:13:35;24.40;;;22.13;;
10452;SDS011;5274;51.992;8.518;2023-04-25T01:16:02;25.98;;;22.38;;
10452;SDS011;5274;51.992;8.518;2023-04-25T01:18:28;25.05;;;22.70;;
10452;SDS011;5274;51.992;8.518;2023-04-25T01:20:54;25.55;;;23.15;;
10452;SDS011;5274;51.992;8.518;2023-04-25T01:23:21;24.63;;;22.52;;
10452;SDS011;5274;51.992;8.518;2023-04-25T01:25:47;25.02;;;22.63;;
10452;SDS011;5274;51.992;8.518;2023-04-25T01:28:14;25.42;;;23.30;;
10452;SDS011;5274;51.992;8.518;2023-04-25T01:30:40;24.63;;;22.48;;
10452;SDS011;5274;51.992;8.518;2023-04-25T01:33:07;24.23;;;22.23;;
10452;SDS011;5274;51.992;8.518;2023-04-25T01:35:33;25.20;;;22.77;;
10452;SDS011;5274;51.992;8.518;2023-04-25T01:37:59;23.95;;;22.02;;
10452;SDS011;5274;51.992;8.518;2023-04-25T01:40:25;23.23;;;21.17;;
10452;SDS011;5274;51.992;8.518;2023-04-25T01:42:53;22.52;;;20.27;;
10452;SDS011;5274;51.992;8.518;2023-04-25T01:45:19;22.75;;;20.77;;
10452;SDS011;5274;51.992;8.518;2023-04-25T01:47:45;23.20;;;21.23;;
10452;SDS011;5274;51.992;8.518;2023-04-25T01:50:14;22.30;;;20.23;;
10452;SDS011;5274;51.992;8.518;2023-04-25T01:52:40;21.80;;;19.48;;
10452;SDS011;5274;51.992;8.518;2023-04-25T01:55:06;22.60;;;20.38;;
10452;SDS011;5274;51.992;8.518;2023-04-25T01:57:32;22.25;;;20.30;;
10452;SDS011;5274;51.992;8.518;2023-04-25T01:59:59;21.92;;;19.88;;
10452;SDS011;5274;51.992;8.518;2023-04-25T02:02:25;25.20;;;23.10;;
10452;SDS011;5274;51.992;8.518;2023-04-25T02:04:51;22.95;;;20.85;;
10452;SDS011;5274;51.992;8.518;2023-04-25T02:07:19;23.33;;;21.20;;
10452;SDS011;5274;51.992;8.518;2023-04-25T02:09:45;23.50;;;21.50;;
10452;SDS011;5274;51.992;8.518;2023-04-25T02:12:11;23.02;;;20.92;;
10452;SDS011;5274;51.992;8.518;2023-04-25T02:14:37;21.67;;;20.10;;
10452;SDS011;5274;51.992;8.518;2023-04-25T02:17:03;21.52;;;19.92;;
10452;SDS011;5274;51.992;8.518;2023-04-25T02:19:29;20.27;;;18.65;;
10452;SDS011;5274;51.992;8.518;2023-04-25T02:21:55;19.73;;;17.92;;
10452;SDS011;5274;51.992;8.518;2023-04-25T02:24:21;21.17;;;19.52;;
10452;SDS011;5274;51.992;8.518;2023-04-25T02:26:48;20.42;;;18.92;;
10452;SDS011;5274;51.992;8.518;2023-04-25T02:29:14;20.45;;;18.88;;
10452;SDS011;5274;51.992;8.518;2023-04-25T02:31:40;21.65;;;19.92;;
10452;SDS011;5274;51.992;8.518;2023-04-25T02:34:06;21.52;;;19.80;;
10452;SDS011;5274;51.992;8.518;2023-04-25T02:36:32;22.27;;;20.17;;
10452;SDS011;5274;51.992;8.518;2023-04-25T02:39:00;21.58;;;19.75;;
10452;SDS011;5274;51.992;8.518;2023-04-25T02:41:26;20.70;;;19.08;;
10452;SDS011;5274;51.992;8.518;2023-04-25T02:43:52;20.80;;;19.23;;
10452;SDS011;5274;51.992;8.518;2023-04-25T02:46:18;19.38;;;18.00;;
10452;SDS011;5274;51.992;8.518;2023-04-25T02:48:44;20.30;;;18.50;;
10452;SDS011;5274;51.992;8.518;2023-04-25T02:51:10;20.42;;;18.75;;
10452;SDS011;5274;51.992;8.518;2023-04-25T02:53:36;20.42;;;18.77;;
10452;SDS011;5274;51.992;8.518;2023-04-25T02:56:02;22.15;;;19.77;;
10452;SDS011;5274;51.992;8.518;2023-04-25T02:58:28;20.95;;;19.15;;
10452;SDS011;5274;51.992;8.518;2023-04-25T03:00:54;20.90;;;19.10;;
10452;SDS011;5274;51.992;8.518;2023-04-25T03:03:20;21.77;;;19.90;;
10452;SDS011;5274;51.992;8.518;2023-04-25T03:05:49;22.52;;;20.33;;
10452;SDS011;5274;51.992;8.518;2023-04-25T03:08:15;21.75;;;20.13;;
10452;SDS011;5274;51.992;8.518;2023-04-25T03:10:41;23.35;;;20.92;;
10452;SDS011;5274;51.992;8.518;2023-04-25T03:13:07;22.40;;;20.33;;
10452;SDS011;5274;51.992;8.518;2023-04-25T03:15:34;22.25;;;19.90;;
10452;SDS011;5274;51.992;8.518;2023-04-25T03:18:00;23.90;;;21.33;;
10452;SDS011;5274;51.992;8.518;2023-04-25T03:20:26;23.83;;;21.10;;
10452;SDS011;5274;51.992;8.518;2023-04-25T03:22:52;23.02;;;20.95;;
10452;SDS011;5274;51.992;8.518;2023-04-25T03:25:18;24.38;;;20.70;;
10452;SDS011;5274;51.992;8.518;2023-04-25T03:27:44;21.38;;;19.58;;
10452;SDS011;5274;51.992;8.518;2023-04-25T03:30:10;23.80;;;21.63;;
10452;SDS011;5274;51.992;8.518;2023-04-25T03:32:36;24.33;;;20.33;;
10452;SDS011;5274;51.992;8.518;2023-04-25T03:35:02;25.90;;;20.42;;
10452;SDS011;5274;51.992;8.518;2023-04-25T03:37:28;24.33;;;21.80;;
10452;SDS011;5274;51.992;8.518;2023-04-25T03:39:54;24.42;;;22.05;;
10452;SDS011;5274;51.992;8.518;2023-04-25T03:42:20;23.83;;;21.38;;
10452;SDS011;5274;51.992;8.518;2023-04-25T03:44:48;23.45;;;21.42;;
10452;SDS011;5274;51.992;8.518;2023-04-25T03:47:13;23.30;;;20.80;;
10452;SDS011;5274;51.992;8.518;2023-04-25T03:49:41;21.88;;;20.13;;
10452;SDS011;5274;51.992;8.518;2023-04-25T03:52:07;23.75;;;21.55;;
10452;SDS011;5274;51.992;8.518;2023-04-25T03:54:33;23.63;;;21.58;;
10452;SDS011;5274;51.992;8.518;2023-04-25T03:56:59;24.83;;;21.85;;
10452;SDS011;5274;51.992;8.518;2023-04-25T03:59:25;23.50;;;21.40;;
10452;SDS011;5274;51.992;8.518;2023-04-25T04:01:51;25.35;;;22.73;;
10452;SDS011;5274;51.992;8.518;2023-04-25T04:04:17;28.55;;;22.90;;
10452;SDS011;5274;51.992;8.518;2023-04-25T04:06:43;24.73;;;22.63;;
10452;SDS011;5274;51.992;8.518;2023-04-25T04:09:09;25.88;;;22.83;;
10452;SDS011;5274;51.992;8.518;2023-04-25T04:11:36;35.10;;;32.05;;
10452;SDS011;5274;51.992;8.518;2023-04-25T04:14:04;35.15;;;31.98;;
10452;SDS011;5274;51.992;8.518;2023-04-25T04:16:30;32.97;;;30.55;;
10452;SDS011;5274;51.992;8.518;2023-04-25T04:18:56;35.60;;;32.60;;
10452;SDS011;5274;51.992;8.518;2023-04-25T04:21:22;35.08;;;32.10;;
10452;SDS011;5274;51.992;8.518;2023-04-25T04:23:48;35.40;;;32.30;;
10452;SDS011;5274;51.992;8.518;2023-04-25T04:26:14;34.97;;;32.17;;
10452;SDS011;5274;51.992;8.518;2023-04-25T04:28:41;37.53;;;34.58;;
10452;SDS011;5274;51.992;8.518;2023-04-25T04:31:07;37.08;;;34.22;;
10452;SDS011;5274;51.992;8.518;2023-04-25T04:33:34;36.33;;;33.03;;
10452;SDS011;5274;51.992;8.518;2023-04-25T04:36:01;35.20;;;31.75;;
10452;SDS011;5274;51.992;8.518;2023-04-25T04:38:28;34.92;;;30.98;;
10452;SDS011;5274;51.992;8.518;2023-04-25T04:40:54;34.78;;;31.90;;
10452;SDS011;5274;51.992;8.518;2023-04-25T04:43:20;35.15;;;32.47;;
10452;SDS011;5274;51.992;8.518;2023-04-25T04:45:48;36.08;;;33.20;;
10452;SDS011;5274;51.992;8.518;2023-04-25T04:48:15;37.15;;;33.40;;
10452;SDS011;5274;51.992;8.518;2023-04-25T04:50:42;36.35;;;33.63;;
10452;SDS011;5274;51.992;8.518;2023-04-25T04:53:10;37.45;;;33.95;;
10452;SDS011;5274;51.992;8.518;2023-04-25T04:55:36;35.22;;;31.85;;
10452;SDS011;5274;51.992;8.518;2023-04-25T04:58:02;36.72;;;33.45;;
10452;SDS011;5274;51.992;8.518;2023-04-25T05:00:28;36.08;;;33.03;;
10452;SDS011;5274;51.992;8.518;2023-04-25T05:02:55;37.05;;;33.80;;
10452;SDS011;5274;51.992;8.518;2023-04-25T05:05:21;38.55;;;34.72;;
10452;SDS011;5274;51.992;8.518;2023-04-25T05:07:47;37.22;;;34.13;;
10452;SDS011;5274;51.992;8.518;2023-04-25T05:10:12;37.22;;;33.80;;
10452;SDS011;5274;51.992;8.518;2023-04-25T05:12:39;40.30;;;36.30;;
10452;SDS011;5274;51.992;8.518;2023-04-25T05:15:05;40.22;;;36.72;;
10452;SDS011;5274;51.992;8.518;2023-04-25T05:17:31;37.97;;;34.92;;
10452;SDS011;5274;51.992;8.518;2023-04-25T05:19:57;37.97;;;34.42;;
10452;SDS011;5274;51.992;8.518;2023-04-25T05:22:23;36.00;;;32.85;;
10452;SDS011;5274;51.992;8.518;2023-04-25T05:24:49;37.97;;;34.45;;
10452;SDS011;5274;51.992;8.518;2023-04-25T05:27:17;38.60;;;35.07;;
10452;SDS011;5274;51.992;8.518;2023-04-25T05:29:43;47.47;;;43.45;;
10452;SDS011;5274;51.992;8.518;2023-04-25T05:32:09;47.42;;;43.58;;
10452;SDS011;5274;51.992;8.518;2023-04-25T05:34:35;47.33;;;43.33;;
10452;SDS011;5274;51.992;8.518;2023-04-25T05:37:01;48.58;;;43.72;;
10452;SDS011;5274;51.992;8.518;2023-04-25T05:39:27;49.65;;;44.65;;
10452;SDS011;5274;51.992;8.518;2023-04-25T05:41:53;48.78;;;44.83;;
10452;SDS011;5274;51.992;8.518;2023-04-25T05:44:19;49.13;;;45.13;;
10452;SDS011;5274;51.992;8.518;2023-04-25T05:46:45;49.45;;;45.05;;
10452;SDS011;5274;51.992;8.518;2023-04-25T05:49:11;49.13;;;44.83;;
10452;SDS011;5274;51.992;8.518;2023-04-25T05:51:37;48.75;;;44.63;;
10452;SDS011;5274;51.992;8.518;2023-04-25T05:54:03;47.80;;;43.83;;
10452;SDS011;5274;51.992;8.518;2023-04-25T05:56:29;45.25;;;41.58;;
10452;SDS011;5274;51.992;8.518;2023-04-25T05:58:55;45.92;;;42.47;;
10452;SDS011;5274;51.992;8.518;2023-04-25T06:01:22;42.88;;;38.80;;
10452;SDS011;5274;51.992;8.518;2023-04-25T06:03:48;43.70;;;39.65;;
10452;SDS011;5274;51.992;8.518;2023-04-25T06:06:14;48.38;;;44.08;;
10452;SDS011;5274;51.992;8.518;2023-04-25T06:08:40;43.80;;;40.67;;
10452;SDS011;5274;51.992;8.518;2023-04-25T06:11:06;47.63;;;43.78;;
10452;SDS011;5274;51.992;8.518;2023-04-25T06:13:32;49.00;;;45.05;;
10452;SDS011;5274;51.992;8.518;2023-04-25T06:15:58;51.35;;;47.00;;
10452;SDS011;5274;51.992;8.518;2023-04-25T06:18:24;52.67;;;47.83;;
10452;SDS011;5274;51.992;8.518;2023-04-25T06:20:50;51.78;;;47.60;;
10452;SDS011;5274;51.992;8.518;2023-04-25T06:23:16;50.97;;;46.97;;
10452;SDS011;5274;51.992;8.518;2023-04-25T06:25:42;46.05;;;42.25;;
10452;SDS011;5274;51.992;8.518;2023-04-25T06:28:08;43.75;;;39.95;;
10452;SDS011;5274;51.992;8.518;2023-04-25T06:30:34;44.97;;;41.30;;
10452;SDS011;5274;51.992;8.518;2023-04-25T06:33:00;45.47;;;41.55;;
10452;SDS011;5274;51.992;8.518;2023-04-25T06:35:26;42.67;;;38.85;;
10452;SDS011;5274;51.992;8.518;2023-04-25T06:37:52;43.10;;;39.60;;
10452;SDS011;5274;51.992;8.518;2023-04-25T06:40:17;46.75;;;42.28;;
10452;SDS011;5274;51.992;8.518;2023-04-25T06:42:43;46.78;;;42.67;;
10452;SDS011;5274;51.992;8.518;2023-04-25T06:45:09;47.45;;;43.38;;
10452;SDS011;5274;51.992;8.518;2023-04-25T06:47:35;46.03;;;42.20;;
10452;SDS011;5274;51.992;8.518;2023-04-25T06:50:01;47.30;;;43.42;;
10452;SDS011;5274;51.992;8.518;2023-04-25T06:52:27;50.08;;;45.47;;
10452;SDS011;5274;51.992;8.518;2023-04-25T06:54:53;49.00;;;45.05;;
10452;SDS011;5274;51.992;8.518;2023-04-25T06:57:19;49.88;;;45.92;;
10452;SDS011;5274;51.992;8.518;2023-04-25T06:59:45;50.50;;;46.25;;
10452;SDS011;5274;51.992;8.518;2023-04-25T07:02:11;50.25;;;45.88;;
10452;SDS011;5274;51.992;8.518;2023-04-25T07:04:37;51.97;;;47.25;;
10452;SDS011;5274;51.992;8.518;2023-04-25T07:07:03;52.03;;;47.83;;
10452;SDS011;5274;51.992;8.518;2023-04-25T07:09:29;51.13;;;46.90;;
10452;SDS011;5274;51.992;8.518;2023-04-25T07:11:58;51.78;;;47.30;;
10452;SDS011;5274;51.992;8.518;2023-04-25T07:14:26;48.97;;;44.72;;
10452;SDS011;5274;51.992;8.518;2023-04-25T07:16:52;48.00;;;44.33;;
10452;SDS011;5274;51.992;8.518;2023-04-25T07:19:18;48.65;;;44.17;;
10452;SDS011;5274;51.992;8.518;2023-04-25T07:21:43;48.90;;;45.15;;
10452;SDS011;5274;51.992;8.518;2023-04-25T07:24:09;47.15;;;43.53;;
10452;SDS011;5274;51.992;8.518;2023-04-25T07:26:35;44.35;;;41.15;;
10452;SDS011;5274;51.992;8.518;2023-04-25T07:29:02;45.90;;;42.65;;
10452;SDS011;5274;51.992;8.518;2023-04-25T07:31:28;45.30;;;41.80;;
10452;SDS011;5274;51.992;8.518;2023-04-25T07:33:54;45.15;;;41.65;;
10452;SDS011;5274;51.992;8.518;2023-04-25T07:36:20;45.58;;;42.08;;
10452;SDS011;5274;51.992;8.518;2023-04-25T07:38:46;45.17;;;42.10;;
10452;SDS011;5274;51.992;8.518;2023-04-25T07:41:12;45.75;;;42.03;;
10452;SDS011;5274;51.992;8.518;2023-04-25T07:43:38;44.45;;;40.97;;
10452;SDS011;5274;51.992;8.518;2023-04-25T07:46:04;45.15;;;41.28;;
10452;SDS011;5274;51.992;8.518;2023-04-25T07:48:30;45.78;;;42.60;;
10452;SDS011;5274;51.992;8.518;2023-04-25T07:50:56;45.72;;;41.80;;
10452;SDS011;5274;51.992;8.518;2023-04-25T07:53:22;43.70;;;40.55;;
10452;SDS011;5274;51.992;8.518;2023-04-25T07:55:48;37.47;;;34.53;;
10452;SDS011;5274;51.992;8.518;2023-04-25T07:58:14;38.92;;;35.72;;
10452;SDS011;5274;51.992;8.518;2023-04-25T08:00:40;38.47;;;35.80;;
10452;SDS011;5274;51.992;8.518;2023-04-25T08:03:07;39.05;;;36.00;;
10452;SDS011;5274;51.992;8.518;2023-04-25T08:05:33;41.40;;;38.15;;
10452;SDS011;5274;51.992;8.518;2023-04-25T08:07:58;36.75;;;34.08;;
10452;SDS011;5274;51.992;8.518;2023-04-25T08:10:25;39.45;;;36.33;;
10452;SDS011;5274;51.992;8.518;2023-04-25T08:12:50;44.35;;;41.08;;
10452;SDS011;5274;51.992;8.518;2023-04-25T08:15:16;41.40;;;38.17;;
10452;SDS011;5274;51.992;8.518;2023-04-25T08:17:42;46.10;;;42.58;;
10452;SDS011;5274;51.992;8.518;2023-04-25T08:20:09;46.05;;;42.75;;
10452;SDS011;5274;51.992;8.518;2023-04-25T08:22:35;45.58;;;41.97;;
10452;SDS011;5274;51.992;8.518;2023-04-25T08:25:01;44.72;;;41.10;;
10452;SDS011;5274;51.992;8.518;2023-04-25T08:27:27;43.67;;;40.60;;
10452;SDS011;5274;51.992;8.518;2023-04-25T08:29:53;39.40;;;36.67;;
10452;SDS011;5274;51.992;8.518;2023-04-25T08:32:19;41.63;;;38.55;;
10452;SDS011;5274;51.992;8.518;2023-04-25T08:34:46;45.63;;;42.25;;
10452;SDS011;5274;51.992;8.518;2023-04-25T08:37:12;46.85;;;43.65;;
10452;SDS011;5274;51.992;8.518;2023-04-25T08:39:38;42.33;;;39.63;;
10452;SDS011;5274;51.992;8.518;2023-04-25T08:42:05;43.95;;;40.65;;
10452;SDS011;5274;51.992;8.518;2023-04-25T08:44:35;44.65;;;41.25;;
10452;SDS011;5274;51.992;8.518;2023-04-25T08:47:02;43.45;;;40.83;;
10452;SDS011;5274;51.992;8.518;2023-04-25T08:49:29;45.00;;;42.10;;
10452;SDS011;5274;51.992;8.518;2023-04-25T08:51:55;45.90;;;42.90;;
10452;SDS011;5274;51.992;8.518;2023-04-25T08:54:23;46.45;;;42.72;;
10452;SDS011;5274;51.992;8.518;2023-04-25T08:56:52;44.17;;;41.50;;
10452;SDS011;5274;51.992;8.518;2023-04-25T08:59:19;43.83;;;41.03;;
10452;SDS011;5274;51.992;8.518;2023-04-25T09:01:45;46.20;;;42.97;;
10452;SDS011;5274;51.992;8.518;2023-04-25T09:04:11;43.58;;;40.58;;
10452;SDS011;5274;51.992;8.518;2023-04-25T09:06:37;44.83;;;41.63;;
10452;SDS011;5274;51.992;8.518;2023-04-25T09:09:04;45.33;;;41.90;;
10452;SDS011;5274;51.992;8.518;2023-04-25T09:11:31;45.45;;;42.25;;
10452;SDS011;5274;51.992;8.518;2023-04-25T09:14:10;45.45;;;42.03;;
10452;SDS011;5274;51.992;8.518;2023-04-25T09:16:44;45.33;;;42.08;;
10452;SDS011;5274;51.992;8.518;2023-04-25T09:19:32;47.88;;;44.75;;
10452;SDS011;5274;51.992;8.518;2023-04-25T09:22:02;45.75;;;42.75;;
10452;SDS011;5274;51.992;8.518;2023-04-25T09:24:35;42.92;;;40.03;;
10452;SDS011;5274;51.992;8.518;2023-04-25T09:27:20;45.80;;;42.65;;
10452;SDS011;5274;51.992;8.518;2023-04-25T09:29:47;44.03;;;40.92;;
10452;SDS011;5274;51.992;8.518;2023-04-25T09:32:20;43.45;;;40.55;;
10452;SDS011;5274;51.992;8.518;2023-04-25T09:34:48;44.72;;;41.10;;
10452;SDS011;5274;51.992;8.518;2023-04-25T09:37:24;44.80;;;42.00;;
10452;SDS011;5274;51.992;8.518;2023-04-25T09:39:54;45.85;;;42.63;;
10452;SDS011;5274;51.992;8.518;2023-04-25T09:42:23;46.08;;;42.65;;
10452;SDS011;5274;51.992;8.518;2023-04-25T09:44:51;46.00;;;43.22;;
10452;SDS011;5274;51.992;8.518;2023-04-25T09:47:17;45.92;;;42.00;;
10452;SDS011;5274;51.992;8.518;2023-04-25T09:49:46;44.42;;;41.83;;
10452;SDS011;5274;51.992;8.518;2023-04-25T09:52:16;43.55;;;40.50;;
10452;SDS011;5274;51.992;8.518;2023-04-25T09:54:42;45.22;;;42.17;;
10452;SDS011;5274;51.992;8.518;2023-04-25T09:57:18;43.92;;;41.30;;
10452;SDS011;5274;51.992;8.518;2023-04-25T09:59:46;44.78;;;41.65;;
10452;SDS011;5274;51.992;8.518;2023-04-25T10:02:13;43.45;;;40.53;;
10452;SDS011;5274;51.992;8.518;2023-04-25T10:04:39;42.03;;;39.33;;
10452;SDS011;5274;51.992;8.518;2023-04-25T10:07:06;40.95;;;38.55;;
10452;SDS011;5274;51.992;8.518;2023-04-25T10:09:32;41.35;;;38.45;;
10452;SDS011;5274;51.992;8.518;2023-04-25T10:11:58;39.55;;;37.10;;
10452;SDS011;5274;51.992;8.518;2023-04-25T10:14:25;40.22;;;37.55;;
10452;SDS011;5274;51.992;8.518;2023-04-25T10:16:51;50.25;;;46.35;;
10452;SDS011;5274;51.992;8.518;2023-04-25T10:19:18;49.03;;;45.83;;
10452;SDS011;5274;51.992;8.518;2023-04-25T10:21:51;55.13;;;51.30;;
10452;SDS011;5274;51.992;8.518;2023-04-25T10:24:18;54.85;;;50.80;;
10452;SDS011;5274;51.992;8.518;2023-04-25T10:26:44;54.63;;;50.83;;
10452;SDS011;5274;51.992;8.518;2023-04-25T10:29:11;53.30;;;49.70;;
10452;SDS011;5274;51.992;8.518;2023-04-25T10:31:47;54.08;;;49.65;;
10452;SDS011;5274;51.992;8.518;2023-04-25T10:34:13;52.88;;;49.58;;
10452;SDS011;5274;51.992;8.518;2023-04-25T10:36:39;47.70;;;44.47;;
10452;SDS011;5274;51.992;8.518;2023-04-25T10:39:05;51.33;;;47.70;;
10452;SDS011;5274;51.992;8.518;2023-04-25T10:41:45;51.70;;;48.40;;
10452;SDS011;5274;51.992;8.518;2023-04-25T10:44:11;52.90;;;49.17;;
10452;SDS011;5274;51.992;8.518;2023-04-25T10:46:37;49.33;;;46.13;;
10452;SDS011;5274;51.992;8.518;2023-04-25T10:49:03;52.53;;;49.08;;
10452;SDS011;5274;51.992;8.518;2023-04-25T10:51:30;51.38;;;47.92;;
10452;SDS011;5274;51.992;8.518;2023-04-25T10:54:01;52.83;;;48.92;;
10452;SDS011;5274;51.992;8.518;2023-04-25T10:56:28;52.95;;;48.92;;
10452;SDS011;5274;51.992;8.518;2023-04-25T10:59:04;54.25;;;50.45;;
10452;SDS011;5274;51.992;8.518;2023-04-25T11:04:03;54.75;;;50.95;;
10452;SDS011;5274;51.992;8.518;2023-04-25T11:06:33;54.33;;;50.75;;
10452;SDS011;5274;51.992;8.518;2023-04-25T11:09:02;55.33;;;51.53;;
10452;SDS011;5274;51.992;8.518;2023-04-25T11:11:28;54.63;;;50.92;;
10452;SDS011;5274;51.992;8.518;2023-04-25T11:13:55;53.60;;;49.72;;
10452;SDS011;5274;51.992;8.518;2023-04-25T11:16:23;52.22;;;48.78;;
10452;SDS011;5274;51.992;8.518;2023-04-25T11:18:50;54.63;;;50.78;;
10452;SDS011;5274;51.992;8.518;2023-04-25T11:21:16;53.90;;;50.13;;
10452;SDS011;5274;51.992;8.518;2023-04-25T11:23:44;53.22;;;49.65;;
10452;SDS011;5274;51.992;8.518;2023-04-25T11:26:12;54.35;;;50.33;;
10452;SDS011;5274;51.992;8.518;2023-04-25T11:28:38;53.65;;;50.25;;
10452;SDS011;5274;51.992;8.518;2023-04-25T11:31:04;55.83;;;51.85;;
10452;SDS011;5274;51.992;8.518;2023-04-25T11:33:30;55.15;;;51.55;;
10452;SDS011;5274;51.992;8.518;2023-04-25T11:35:56;51.13;;;47.38;;
10452;SDS011;5274;51.992;8.518;2023-04-25T11:38:23;48.97;;;45.78;;
10452;SDS011;5274;51.992;8.518;2023-04-25T11:40:51;50.95;;;47.60;;
10452;SDS011;5274;51.992;8.518;2023-04-25T11:43:17;48.15;;;44.78;;
10452;SDS011;5274;51.992;8.518;2023-04-25T11:45:45;49.78;;;46.38;;
10452;SDS011;5274;51.992;8.518;2023-04-25T11:48:12;54.42;;;50.45;;
10452;SDS011;5274;51.992;8.518;2023-04-25T11:50:38;54.05;;;50.28;;
10452;SDS011;5274;51.992;8.518;2023-04-25T11:53:04;48.15;;;44.65;;
10452;SDS011;5274;51.992;8.518;2023-04-25T11:55:31;52.38;;;48.72;;
10452;SDS011;5274;51.992;8.518;2023-04-25T11:57:59;53.25;;;49.67;;
10452;SDS011;5274;51.992;8.518;2023-04-25T12:00:25;54.72;;;51.05;;
10452;SDS011;5274;51.992;8.518;2023-04-25T12:02:52;55.67;;;51.55;;
10452;SDS011;5274;51.992;8.518;2023-04-25T12:05:18;54.40;;;50.60;;
10452;SDS011;5274;51.992;8.518;2023-04-25T12:07:45;52.67;;;49.15;;
10452;SDS011;5274;51.992;8.518;2023-04-25T12:10:12;51.45;;;47.92;;
10452;SDS011;5274;51.992;8.518;2023-04-25T12:12:41;52.55;;;49.25;;
10452;SDS011;5274;51.992;8.518;2023-04-25T12:15:17;51.22;;;47.92;;
10452;SDS011;5274;51.992;8.518;2023-04-25T12:17:47;51.58;;;48.25;;
10452;SDS011;5274;51.992;8.518;2023-04-25T12:20:14;52.15;;;48.55;;
10452;SDS011;5274;51.992;8.518;2023-04-25T12:22:44;53.40;;;49.83;;
10452;SDS011;5274;51.992;8.518;2023-04-25T12:25:12;55.80;;;51.92;;
10452;SDS011;5274;51.992;8.518;2023-04-25T12:27:38;53.97;;;50.25;;
10452;SDS011;5274;51.992;8.518;2023-04-25T12:30:09;51.78;;;48.38;;
10452;SDS011;5274;51.992;8.518;2023-04-25T12:32:36;52.30;;;48.80;;
10452;SDS011;5274;51.992;8.518;2023-04-25T12:35:02;49.50;;;46.30;;
10452;SDS011;5274;51.992;8.518;2023-04-25T12:37:28;47.38;;;44.30;;
10452;SDS011;5274;51.992;8.518;2023-04-25T12:39:55;52.33;;;48.75;;
10452;SDS011;5274;51.992;8.518;2023-04-25T12:42:21;52.63;;;49.15;;
10452;SDS011;5274;51.992;8.518;2023-04-25T12:44:47;47.60;;;44.55;;
10452;SDS011;5274;51.992;8.518;2023-04-25T12:47:13;52.30;;;48.65;;
10452;SDS011;5274;51.992;8.518;2023-04-25T12:49:39;51.60;;;48.25;;
10452;SDS011;5274;51.992;8.518;2023-04-25T12:52:05;54.17;;;50.58;;
10452;SDS011;5274;51.992;8.518;2023-04-25T12:54:31;52.15;;;48.67;;
10452;SDS011;5274;51.992;8.518;2023-04-25T12:56:57;50.15;;;46.95;;
10452;SDS011;5274;51.992;8.518;2023-04-25T12:59:24;52.08;;;48.60;;
10452;SDS011;5274;51.992;8.518;2023-04-25T13:01:50;52.15;;;48.85;;
10452;SDS011;5274;51.992;8.518;2023-04-25T13:04:15;54.63;;;50.88;;
10452;SDS011;5274;51.992;8.518;2023-04-25T13:06:42;53.08;;;49.63;;
10452;SDS011;5274;51.992;8.518;2023-04-25T13:09:08;53.72;;;50.30;;
10452;SDS011;5274;51.992;8.518;2023-04-25T13:11:34;54.88;;;51.03;;
10452;SDS011;5274;51.992;8.518;2023-04-25T13:14:01;55.53;;;51.80;;
10452;SDS011;5274;51.992;8.518;2023-04-25T13:16:27;54.65;;;51.03;;
10452;SDS011;5274;51.992;8.518;2023-04-25T13:18:53;55.30;;;51.70;;
10452;SDS011;5274;51.992;8.518;2023-04-25T13:21:20;53.97;;;50.55;;
10452;SDS011;5274;51.992;8.518;2023-04-25T13:23:46;54.22;;;50.60;;
10452;SDS011;5274;51.992;8.518;2023-04-25T13:26:12;52.25;;;48.92;;
10452;SDS011;5274;51.992;8.518;2023-04-25T13:28:38;51.90;;;48.60;;
10452;SDS011;5274;51.992;8.518;2023-04-25T13:31:05;53.35;;;49.65;;
10452;SDS011;5274;51.992;8.518;2023-04-25T13:33:31;52.20;;;48.80;;
10452;SDS011;5274;51.992;8.518;2023-04-25T13:35:57;52.38;;;48.97;;
10452;SDS011;5274;51.992;8.518;2023-04-25T13:38:23;51.83;;;48.47;;
10452;SDS011;5274;51.992;8.518;2023-04-25T13:40:50;52.00;;;48.80;;
10452;SDS011;5274;51.992;8.518;2023-04-25T13:43:20;52.35;;;49.05;;
10452;SDS011;5274;51.992;8.518;2023-04-25T13:45:47;54.13;;;50.42;;
10452;SDS011;5274;51.992;8.518;2023-04-25T13:48:13;53.97;;;50.22;;
10452;SDS011;5274;51.992;8.518;2023-04-25T13:50:38;51.97;;;48.58;;
10452;SDS011;5274;51.992;8.518;2023-04-25T13:53:04;43.70;;;41.00;;
10452;SDS011;5274;51.992;8.518;2023-04-25T13:55:30;47.80;;;45.03;;
10452;SDS011;5274;51.992;8.518;2023-04-25T13:57:56;47.17;;;44.45;;
10452;SDS011;5274;51.992;8.518;2023-04-25T14:00:22;46.88;;;44.15;;
10452;SDS011;5274;51.992;8.518;2023-04-25T14:02:48;46.08;;;43.47;;
10452;SDS011;5274;51.992;8.518;2023-04-25T14:05:14;44.63;;;42.13;;
10452;SDS011;5274;51.992;8.518;2023-04-25T14:07:40;44.42;;;42.00;;
10452;SDS011;5274;51.992;8.518;2023-04-25T14:10:06;43.88;;;41.28;;
10452;SDS011;5274;51.992;8.518;2023-04-25T14:12:32;43.90;;;41.15;;
10452;SDS011;5274;51.992;8.518;2023-04-25T14:14:58;43.08;;;40.65;;
10452;SDS011;5274;51.992;8.518;2023-04-25T14:17:25;44.08;;;41.38;;
10452;SDS011;5274;51.992;8.518;2023-04-25T14:19:51;42.60;;;39.97;;
10452;SDS011;5274;51.992;8.518;2023-04-25T14:22:16;43.97;;;41.45;;
10452;SDS011;5274;51.992;8.518;2023-04-25T14:24:42;42.67;;;40.17;;
10452;SDS011;5274;51.992;8.518;2023-04-25T14:27:08;41.15;;;38.72;;
10452;SDS011;5274;51.992;8.518;2023-04-25T14:29:35;40.70;;;38.30;;
10452;SDS011;5274;51.992;8.518;2023-04-25T14:32:01;41.85;;;39.45;;